sensor_id;sensor_type;location;lat;lon;timestamp;P1;durP1;ratioP1;P2;durP2;ratioP2
31210;SDS011;17836;50.948;3.946;2024-03-22T00:02:01;35.03;;;23.23;;
31210;SDS011;17836;50.948;3.946;2024-03-22T00:04:27;35.83;;;24.47;;
31210;SDS011;17836;50.948;3.946;2024-03-22T00:06:52;33.53;;;22.50;;
31210;SDS011;17836;50.948;3.946;2024-03-22T00:09:17;33.13;;;23.45;;
31210;SDS011;17836;50.948;3.946;2024-03-22T00:11:43;31.93;;;21.27;;
31210;SDS011;17836;50.948;3.946;2024-03-22T00:14:08;32.95;;;21.52;;
31210;SDS011;17836;50.948;3.946;2024-03-22T00:16:34;33.53;;;23.05;;
31210;SDS011;17836;50.948;3.946;2024-03-22T00:18:59;34.58;;;23.38;;
31210;SDS011;17836;50.948;3.946;2024-03-22T00:21:25;32.95;;;23.02;;
31210;SDS011;17836;50.948;3.946;2024-03-22T00:23:50;34.42;;;23.85;;
31210;SDS011;17836;50.948;3.946;2024-03-22T00:26:15;33.40;;;23.17;;
31210;SDS011;17836;50.948;3.946;2024-03-22T00:28:43;30.88;;;22.60;;
31210;SDS011;17836;50.948;3.946;2024-03-22T00:31:08;32.83;;;22.67;;
31210;SDS011;17836;50.948;3.946;2024-03-22T00:33:34;32.90;;;22.45;;
31210;SDS011;17836;50.948;3.946;2024-03-22T00:35:59;31.27;;;21.38;;
31210;SDS011;17836;50.948;3.946;2024-03-22T00:38:24;33.60;;;22.10;;
31210;SDS011;17836;50.948;3.946;2024-03-22T00:40:50;32.60;;;22.17;;
31210;SDS011;17836;50.948;3.946;2024-03-22T00:43:15;33.90;;;21.48;;
31210;SDS011;17836;50.948;3.946;2024-03-22T00:45:40;33.53;;;22.50;;
31210;SDS011;17836;50.948;3.946;2024-03-22T00:48:06;33.90;;;22.20;;
31210;SDS011;17836;50.948;3.946;2024-03-22T00:50:34;35.25;;;23.20;;
31210;SDS011;17836;50.948;3.946;2024-03-22T00:52:59;37.05;;;24.13;;
31210;SDS011;17836;50.948;3.946;2024-03-22T00:55:31;32.83;;;22.10;;
31210;SDS011;17836;50.948;3.946;2024-03-22T00:57:57;33.67;;;21.88;;
31210;SDS011;17836;50.948;3.946;2024-03-22T01:00:22;29.70;;;21.42;;
31210;SDS011;17836;50.948;3.946;2024-03-22T01:02:49;34.20;;;22.25;;
31210;SDS011;17836;50.948;3.946;2024-03-22T01:05:14;31.52;;;22.45;;
31210;SDS011;17836;50.948;3.946;2024-03-22T01:07:39;30.42;;;21.45;;
31210;SDS011;17836;50.948;3.946;2024-03-22T01:10:05;31.60;;;21.05;;
31210;SDS011;17836;50.948;3.946;2024-03-22T01:12:30;31.98;;;21.73;;
31210;SDS011;17836;50.948;3.946;2024-03-22T01:14:56;32.40;;;20.00;;
31210;SDS011;17836;50.948;3.946;2024-03-22T01:20:24;25.90;;;18.45;;
31210;SDS011;17836;50.948;3.946;2024-03-22T01:22:49;31.70;;;20.30;;
31210;SDS011;17836;50.948;3.946;2024-03-22T01:25:14;32.95;;;21.67;;
31210;SDS011;17836;50.948;3.946;2024-03-22T01:27:40;28.37;;;19.40;;
31210;SDS011;17836;50.948;3.946;2024-03-22T01:30:05;32.93;;;20.00;;
31210;SDS011;17836;50.948;3.946;2024-03-22T01:32:30;35.30;;;21.33;;
31210;SDS011;17836;50.948;3.946;2024-03-22T01:34:56;31.60;;;20.63;;
31210;SDS011;17836;50.948;3.946;2024-03-22T01:37:25;34.70;;;20.52;;
31210;SDS011;17836;50.948;3.946;2024-03-22T01:39:50;35.90;;;22.40;;
31210;SDS011;17836;50.948;3.946;2024-03-22T01:42:15;37.53;;;21.67;;
31210;SDS011;17836;50.948;3.946;2024-03-22T01:44:41;36.13;;;21.02;;
31210;SDS011;17836;50.948;3.946;2024-03-22T01:47:18;31.23;;;20.17;;
31210;SDS011;17836;50.948;3.946;2024-03-22T01:49:43;32.13;;;19.35;;
31210;SDS011;17836;50.948;3.946;2024-03-22T01:52:08;31.20;;;20.17;;
31210;SDS011;17836;50.948;3.946;2024-03-22T01:54:34;33.03;;;19.67;;
31210;SDS011;17836;50.948;3.946;2024-03-22T01:56:59;31.27;;;18.60;;
31210;SDS011;17836;50.948;3.946;2024-03-22T01:59:28;27.95;;;18.55;;
31210;SDS011;17836;50.948;3.946;2024-03-22T02:01:53;32.42;;;19.77;;
31210;SDS011;17836;50.948;3.946;2024-03-22T02:04:18;31.87;;;19.57;;
31210;SDS011;17836;50.948;3.946;2024-03-22T02:06:44;29.00;;;18.05;;
31210;SDS011;17836;50.948;3.946;2024-03-22T02:09:09;30.90;;;18.05;;
31210;SDS011;17836;50.948;3.946;2024-03-22T02:11:35;31.08;;;18.20;;
31210;SDS011;17836;50.948;3.946;2024-03-22T02:14:03;28.15;;;17.80;;
31210;SDS011;17836;50.948;3.946;2024-03-22T02:19:01;28.55;;;17.65;;
31210;SDS011;17836;50.948;3.946;2024-03-22T02:21:26;33.63;;;18.53;;
31210;SDS011;17836;50.948;3.946;2024-03-22T02:23:51;31.37;;;18.40;;
31210;SDS011;17836;50.948;3.946;2024-03-22T02:26:17;30.40;;;17.75;;
31210;SDS011;17836;50.948;3.946;2024-03-22T02:28:43;29.53;;;16.87;;
31210;SDS011;17836;50.948;3.946;2024-03-22T02:31:08;30.70;;;18.42;;
31210;SDS011;17836;50.948;3.946;2024-03-22T02:33:36;34.97;;;19.50;;
31210;SDS011;17836;50.948;3.946;2024-03-22T02:36:01;29.77;;;18.17;;
31210;SDS011;17836;50.948;3.946;2024-03-22T02:38:26;30.47;;;18.40;;
31210;SDS011;17836;50.948;3.946;2024-03-22T02:40:52;31.50;;;19.10;;
31210;SDS011;17836;50.948;3.946;2024-03-22T02:43:20;34.42;;;19.38;;
31210;SDS011;17836;50.948;3.946;2024-03-22T02:45:49;31.48;;;19.80;;
31210;SDS011;17836;50.948;3.946;2024-03-22T02:48:15;32.95;;;19.92;;
31210;SDS011;17836;50.948;3.946;2024-03-22T02:50:40;32.00;;;19.47;;
31210;SDS011;17836;50.948;3.946;2024-03-22T02:53:05;31.77;;;19.20;;
31210;SDS011;17836;50.948;3.946;2024-03-22T02:55:39;31.27;;;18.38;;
31210;SDS011;17836;50.948;3.946;2024-03-22T02:58:05;31.15;;;18.95;;
31210;SDS011;17836;50.948;3.946;2024-03-22T03:00:36;29.73;;;17.42;;
31210;SDS011;17836;50.948;3.946;2024-03-22T03:03:02;25.17;;;15.90;;
31210;SDS011;17836;50.948;3.946;2024-03-22T03:05:27;22.27;;;15.13;;
31210;SDS011;17836;50.948;3.946;2024-03-22T03:07:56;24.10;;;15.27;;
31210;SDS011;17836;50.948;3.946;2024-03-22T03:10:21;22.30;;;15.70;;
31210;SDS011;17836;50.948;3.946;2024-03-22T03:12:46;27.17;;;15.60;;
31210;SDS011;17836;50.948;3.946;2024-03-22T03:15:11;24.33;;;13.27;;
31210;SDS011;17836;50.948;3.946;2024-03-22T03:17:37;21.53;;;14.50;;
31210;SDS011;17836;50.948;3.946;2024-03-22T03:20:04;21.43;;;14.53;;
31210;SDS011;17836;50.948;3.946;2024-03-22T03:22:38;20.33;;;13.98;;
31210;SDS011;17836;50.948;3.946;2024-03-22T03:25:03;18.88;;;14.13;;
31210;SDS011;17836;50.948;3.946;2024-03-22T03:27:29;20.00;;;13.48;;
31210;SDS011;17836;50.948;3.946;2024-03-22T03:29:54;23.07;;;14.50;;
31210;SDS011;17836;50.948;3.946;2024-03-22T03:32:19;21.83;;;13.37;;
31210;SDS011;17836;50.948;3.946;2024-03-22T03:34:47;19.35;;;13.57;;
31210;SDS011;17836;50.948;3.946;2024-03-22T03:37:13;17.88;;;12.88;;
31210;SDS011;17836;50.948;3.946;2024-03-22T03:39:39;16.25;;;12.48;;
31210;SDS011;17836;50.948;3.946;2024-03-22T03:42:04;17.42;;;12.93;;
31210;SDS011;17836;50.948;3.946;2024-03-22T03:44:30;19.50;;;13.68;;
31210;SDS011;17836;50.948;3.946;2024-03-22T03:47:01;19.13;;;12.80;;
31210;SDS011;17836;50.948;3.946;2024-03-22T03:49:26;18.90;;;12.93;;
31210;SDS011;17836;50.948;3.946;2024-03-22T03:51:54;18.92;;;13.27;;
31210;SDS011;17836;50.948;3.946;2024-03-22T03:54:20;20.90;;;13.15;;
31210;SDS011;17836;50.948;3.946;2024-03-22T03:56:45;17.20;;;12.33;;
31210;SDS011;17836;50.948;3.946;2024-03-22T03:59:10;20.27;;;12.77;;
31210;SDS011;17836;50.948;3.946;2024-03-22T04:01:36;17.83;;;13.23;;
31210;SDS011;17836;50.948;3.946;2024-03-22T04:04:02;21.10;;;14.55;;
31210;SDS011;17836;50.948;3.946;2024-03-22T04:06:30;22.73;;;14.07;;
31210;SDS011;17836;50.948;3.946;2024-03-22T04:08:55;25.00;;;15.35;;
31210;SDS011;17836;50.948;3.946;2024-03-22T04:11:28;20.07;;;12.97;;
31210;SDS011;17836;50.948;3.946;2024-03-22T04:13:53;19.10;;;12.45;;
31210;SDS011;17836;50.948;3.946;2024-03-22T04:16:18;17.53;;;12.53;;
31210;SDS011;17836;50.948;3.946;2024-03-22T04:18:43;19.58;;;13.57;;
31210;SDS011;17836;50.948;3.946;2024-03-22T04:21:11;19.25;;;12.43;;
31210;SDS011;17836;50.948;3.946;2024-03-22T04:23:37;19.20;;;13.70;;
31210;SDS011;17836;50.948;3.946;2024-03-22T04:26:04;18.13;;;12.52;;
31210;SDS011;17836;50.948;3.946;2024-03-22T04:28:30;19.00;;;13.50;;
31210;SDS011;17836;50.948;3.946;2024-03-22T04:33:24;18.30;;;11.68;;
31210;SDS011;17836;50.948;3.946;2024-03-22T04:35:49;16.58;;;11.98;;
31210;SDS011;17836;50.948;3.946;2024-03-22T04:38:14;16.17;;;12.43;;
31210;SDS011;17836;50.948;3.946;2024-03-22T04:40:43;17.10;;;12.17;;
31210;SDS011;17836;50.948;3.946;2024-03-22T04:43:08;17.50;;;12.52;;
31210;SDS011;17836;50.948;3.946;2024-03-22T04:45:33;17.38;;;12.63;;
31210;SDS011;17836;50.948;3.946;2024-03-22T04:48:00;16.17;;;12.83;;
31210;SDS011;17836;50.948;3.946;2024-03-22T04:50:27;15.82;;;11.88;;
31210;SDS011;17836;50.948;3.946;2024-03-22T04:52:52;20.55;;;13.65;;
31210;SDS011;17836;50.948;3.946;2024-03-22T04:55:17;22.50;;;14.03;;
31210;SDS011;17836;50.948;3.946;2024-03-22T04:57:43;18.30;;;12.33;;
31210;SDS011;17836;50.948;3.946;2024-03-22T05:00:08;18.93;;;12.87;;
31210;SDS011;17836;50.948;3.946;2024-03-22T05:02:34;17.88;;;12.73;;
31210;SDS011;17836;50.948;3.946;2024-03-22T05:04:59;17.33;;;12.18;;
31210;SDS011;17836;50.948;3.946;2024-03-22T05:07:27;19.20;;;12.63;;
31210;SDS011;17836;50.948;3.946;2024-03-22T05:09:52;17.52;;;12.95;;
31210;SDS011;17836;50.948;3.946;2024-03-22T05:12:17;16.63;;;12.17;;
31210;SDS011;17836;50.948;3.946;2024-03-22T05:14:45;15.57;;;12.05;;
31210;SDS011;17836;50.948;3.946;2024-03-22T05:17:10;18.95;;;11.73;;
31210;SDS011;17836;50.948;3.946;2024-03-22T05:19:36;15.40;;;11.43;;
31210;SDS011;17836;50.948;3.946;2024-03-22T05:22:02;16.23;;;11.55;;
31210;SDS011;17836;50.948;3.946;2024-03-22T05:24:27;16.08;;;11.13;;
31210;SDS011;17836;50.948;3.946;2024-03-22T05:26:53;19.60;;;12.57;;
31210;SDS011;17836;50.948;3.946;2024-03-22T05:29:18;16.20;;;10.77;;
31210;SDS011;17836;50.948;3.946;2024-03-22T05:31:48;18.38;;;12.02;;
31210;SDS011;17836;50.948;3.946;2024-03-22T05:34:14;20.90;;;12.73;;
31210;SDS011;17836;50.948;3.946;2024-03-22T05:36:42;15.05;;;12.50;;
31210;SDS011;17836;50.948;3.946;2024-03-22T05:39:10;15.80;;;10.70;;
31210;SDS011;17836;50.948;3.946;2024-03-22T05:41:36;18.60;;;12.20;;
31210;SDS011;17836;50.948;3.946;2024-03-22T05:44:01;18.48;;;12.48;;
31210;SDS011;17836;50.948;3.946;2024-03-22T05:46:26;18.88;;;11.27;;
31210;SDS011;17836;50.948;3.946;2024-03-22T05:48:52;22.60;;;12.90;;
31210;SDS011;17836;50.948;3.946;2024-03-22T05:51:17;20.00;;;12.20;;
31210;SDS011;17836;50.948;3.946;2024-03-22T05:53:45;17.42;;;12.45;;
31210;SDS011;17836;50.948;3.946;2024-03-22T05:56:13;20.08;;;12.10;;
31210;SDS011;17836;50.948;3.946;2024-03-22T05:58:39;18.95;;;12.30;;
31210;SDS011;17836;50.948;3.946;2024-03-22T06:01:05;15.38;;;11.38;;
31210;SDS011;17836;50.948;3.946;2024-03-22T06:03:30;16.73;;;12.57;;
31210;SDS011;17836;50.948;3.946;2024-03-22T06:05:55;15.07;;;11.03;;
31210;SDS011;17836;50.948;3.946;2024-03-22T06:08:27;17.40;;;11.93;;
31210;SDS011;17836;50.948;3.946;2024-03-22T06:10:53;18.30;;;12.23;;
31210;SDS011;17836;50.948;3.946;2024-03-22T06:13:19;18.90;;;12.18;;
31210;SDS011;17836;50.948;3.946;2024-03-22T06:15:49;14.25;;;10.23;;
31210;SDS011;17836;50.948;3.946;2024-03-22T06:18:15;14.10;;;9.38;;
31210;SDS011;17836;50.948;3.946;2024-03-22T06:20:40;11.10;;;9.73;;
31210;SDS011;17836;50.948;3.946;2024-03-22T06:23:07;8.82;;;7.15;;
31210;SDS011;17836;50.948;3.946;2024-03-22T06:25:32;9.25;;;7.97;;
31210;SDS011;17836;50.948;3.946;2024-03-22T06:28:08;10.10;;;7.00;;
31210;SDS011;17836;50.948;3.946;2024-03-22T06:30:36;12.27;;;6.82;;
31210;SDS011;17836;50.948;3.946;2024-03-22T06:33:01;8.27;;;6.57;;
31210;SDS011;17836;50.948;3.946;2024-03-22T06:35:27;7.20;;;6.50;;
31210;SDS011;17836;50.948;3.946;2024-03-22T06:37:52;7.53;;;6.83;;
31210;SDS011;17836;50.948;3.946;2024-03-22T06:40:18;8.65;;;6.50;;
31210;SDS011;17836;50.948;3.946;2024-03-22T06:42:43;12.80;;;7.28;;
31210;SDS011;17836;50.948;3.946;2024-03-22T06:45:11;8.40;;;6.22;;
31210;SDS011;17836;50.948;3.946;2024-03-22T06:47:36;9.07;;;7.07;;
31210;SDS011;17836;50.948;3.946;2024-03-22T06:50:01;11.93;;;7.87;;
31210;SDS011;17836;50.948;3.946;2024-03-22T06:52:28;8.35;;;6.75;;
31210;SDS011;17836;50.948;3.946;2024-03-22T06:54:53;7.15;;;6.43;;
31210;SDS011;17836;50.948;3.946;2024-03-22T06:57:19;10.10;;;6.57;;
31210;SDS011;17836;50.948;3.946;2024-03-22T06:59:44;7.63;;;6.90;;
31210;SDS011;17836;50.948;3.946;2024-03-22T07:02:09;8.90;;;7.20;;
31210;SDS011;17836;50.948;3.946;2024-03-22T07:04:35;11.52;;;7.10;;
31210;SDS011;17836;50.948;3.946;2024-03-22T07:07:01;8.35;;;7.45;;
31210;SDS011;17836;50.948;3.946;2024-03-22T07:09:27;8.73;;;7.47;;
31210;SDS011;17836;50.948;3.946;2024-03-22T07:12:03;9.20;;;7.28;;
31210;SDS011;17836;50.948;3.946;2024-03-22T07:14:35;8.23;;;7.45;;
31210;SDS011;17836;50.948;3.946;2024-03-22T07:17:01;10.63;;;8.00;;
31210;SDS011;17836;50.948;3.946;2024-03-22T07:19:26;9.10;;;8.17;;
31210;SDS011;17836;50.948;3.946;2024-03-22T07:21:56;9.55;;;7.53;;
31210;SDS011;17836;50.948;3.946;2024-03-22T07:26:49;14.68;;;7.88;;
31210;SDS011;17836;50.948;3.946;2024-03-22T07:29:15;10.73;;;8.68;;
31210;SDS011;17836;50.948;3.946;2024-03-22T07:31:40;9.35;;;8.13;;
31210;SDS011;17836;50.948;3.946;2024-03-22T07:34:06;10.23;;;7.85;;
31210;SDS011;17836;50.948;3.946;2024-03-22T07:36:31;10.75;;;7.57;;
31210;SDS011;17836;50.948;3.946;2024-03-22T07:38:57;10.75;;;7.78;;
31210;SDS011;17836;50.948;3.946;2024-03-22T07:41:23;10.65;;;8.13;;
31210;SDS011;17836;50.948;3.946;2024-03-22T07:43:48;10.30;;;8.18;;
31210;SDS011;17836;50.948;3.946;2024-03-22T07:46:19;8.73;;;7.07;;
31210;SDS011;17836;50.948;3.946;2024-03-22T07:48:48;12.25;;;7.90;;
31210;SDS011;17836;50.948;3.946;2024-03-22T07:51:14;10.40;;;8.23;;
31210;SDS011;17836;50.948;3.946;2024-03-22T07:53:41;11.73;;;7.88;;
31210;SDS011;17836;50.948;3.946;2024-03-22T07:56:11;13.70;;;7.57;;
31210;SDS011;17836;50.948;3.946;2024-03-22T07:58:40;12.35;;;8.57;;
31210;SDS011;17836;50.948;3.946;2024-03-22T08:01:06;12.00;;;7.82;;
31210;SDS011;17836;50.948;3.946;2024-03-22T08:03:31;12.63;;;8.32;;
31210;SDS011;17836;50.948;3.946;2024-03-22T08:05:57;9.93;;;8.27;;
31210;SDS011;17836;50.948;3.946;2024-03-22T08:08:22;10.47;;;8.40;;
31210;SDS011;17836;50.948;3.946;2024-03-22T08:10:50;11.52;;;7.45;;
31210;SDS011;17836;50.948;3.946;2024-03-22T08:13:15;11.23;;;8.20;;
31210;SDS011;17836;50.948;3.946;2024-03-22T08:15:41;10.15;;;8.32;;
31210;SDS011;17836;50.948;3.946;2024-03-22T08:18:08;11.02;;;8.20;;
31210;SDS011;17836;50.948;3.946;2024-03-22T08:20:34;10.57;;;8.57;;
31210;SDS011;17836;50.948;3.946;2024-03-22T08:23:02;8.93;;;7.78;;
31210;SDS011;17836;50.948;3.946;2024-03-22T08:25:27;10.15;;;8.05;;
31210;SDS011;17836;50.948;3.946;2024-03-22T08:27:58;15.40;;;8.73;;
31210;SDS011;17836;50.948;3.946;2024-03-22T08:30:24;14.30;;;9.52;;
31210;SDS011;17836;50.948;3.946;2024-03-22T08:32:50;16.25;;;8.80;;
31210;SDS011;17836;50.948;3.946;2024-03-22T08:35:17;11.85;;;8.70;;
31210;SDS011;17836;50.948;3.946;2024-03-22T08:37:43;11.30;;;9.17;;
31210;SDS011;17836;50.948;3.946;2024-03-22T08:40:09;10.00;;;8.15;;
31210;SDS011;17836;50.948;3.946;2024-03-22T08:42:35;14.38;;;9.30;;
31210;SDS011;17836;50.948;3.946;2024-03-22T08:45:01;11.57;;;9.20;;
31210;SDS011;17836;50.948;3.946;2024-03-22T08:47:29;15.25;;;9.50;;
31210;SDS011;17836;50.948;3.946;2024-03-22T08:49:54;11.13;;;9.27;;
31210;SDS011;17836;50.948;3.946;2024-03-22T08:52:25;10.68;;;8.48;;
31210;SDS011;17836;50.948;3.946;2024-03-22T08:55:00;14.05;;;8.27;;
31210;SDS011;17836;50.948;3.946;2024-03-22T08:57:25;15.60;;;10.10;;
31210;SDS011;17836;50.948;3.946;2024-03-22T08:59:51;10.25;;;8.77;;
31210;SDS011;17836;50.948;3.946;2024-03-22T09:02:17;12.27;;;9.02;;
31210;SDS011;17836;50.948;3.946;2024-03-22T09:04:44;14.25;;;10.10;;
31210;SDS011;17836;50.948;3.946;2024-03-22T09:07:15;10.75;;;9.00;;
31210;SDS011;17836;50.948;3.946;2024-03-22T09:09:42;16.77;;;9.43;;
31210;SDS011;17836;50.948;3.946;2024-03-22T09:12:09;10.10;;;8.77;;
31210;SDS011;17836;50.948;3.946;2024-03-22T09:14:34;12.75;;;8.23;;
31210;SDS011;17836;50.948;3.946;2024-03-22T09:16:59;16.37;;;9.67;;
31210;SDS011;17836;50.948;3.946;2024-03-22T10:44:14;11.98;;;6.78;;
31210;SDS011;17836;50.948;3.946;2024-03-22T10:46:43;11.35;;;7.18;;
31210;SDS011;17836;50.948;3.946;2024-03-22T10:49:09;9.10;;;6.95;;
31210;SDS011;17836;50.948;3.946;2024-03-22T10:51:35;13.90;;;7.22;;
31210;SDS011;17836;50.948;3.946;2024-03-22T10:54:01;12.93;;;6.60;;
31210;SDS011;17836;50.948;3.946;2024-03-22T10:56:28;11.73;;;7.05;;
31210;SDS011;17836;50.948;3.946;2024-03-22T10:58:54;9.55;;;6.57;;
31210;SDS011;17836;50.948;3.946;2024-03-22T11:01:23;8.15;;;7.28;;
31210;SDS011;17836;50.948;3.946;2024-03-22T11:03:51;12.88;;;8.38;;
31210;SDS011;17836;50.948;3.946;2024-03-22T11:06:19;13.27;;;7.05;;
31210;SDS011;17836;50.948;3.946;2024-03-22T11:08:49;13.38;;;5.90;;
31210;SDS011;17836;50.948;3.946;2024-03-22T11:11:17;11.13;;;6.72;;
31210;SDS011;17836;50.948;3.946;2024-03-22T11:13:43;10.77;;;7.28;;
31210;SDS011;17836;50.948;3.946;2024-03-22T11:16:09;9.33;;;5.73;;
31210;SDS011;17836;50.948;3.946;2024-03-22T11:18:34;15.82;;;7.25;;
31210;SDS011;17836;50.948;3.946;2024-03-22T11:21:00;14.57;;;6.73;;
31210;SDS011;17836;50.948;3.946;2024-03-22T11:23:25;16.20;;;6.10;;
31210;SDS011;17836;50.948;3.946;2024-03-22T11:25:50;11.00;;;6.20;;
31210;SDS011;17836;50.948;3.946;2024-03-22T11:28:16;9.57;;;5.85;;
31210;SDS011;17836;50.948;3.946;2024-03-22T11:30:41;12.77;;;6.28;;
31210;SDS011;17836;50.948;3.946;2024-03-22T11:33:06;21.27;;;6.72;;
31210;SDS011;17836;50.948;3.946;2024-03-22T11:35:33;23.33;;;6.55;;
31210;SDS011;17836;50.948;3.946;2024-03-22T11:38:01;13.75;;;6.10;;
31210;SDS011;17836;50.948;3.946;2024-03-22T11:40:26;9.20;;;6.03;;
31210;SDS011;17836;50.948;3.946;2024-03-22T11:42:52;13.88;;;6.22;;
31210;SDS011;17836;50.948;3.946;2024-03-22T11:45:18;9.77;;;6.20;;
31210;SDS011;17836;50.948;3.946;2024-03-22T11:47:46;12.73;;;6.18;;
31210;SDS011;17836;50.948;3.946;2024-03-22T11:50:12;16.33;;;6.78;;
31210;SDS011;17836;50.948;3.946;2024-03-22T11:52:40;11.27;;;6.13;;
31210;SDS011;17836;50.948;3.946;2024-03-22T11:55:06;15.85;;;7.18;;
31210;SDS011;17836;50.948;3.946;2024-03-22T11:57:33;13.32;;;6.38;;
31210;SDS011;17836;50.948;3.946;2024-03-22T12:00:00;14.55;;;6.65;;
31210;SDS011;17836;50.948;3.946;2024-03-22T12:02:25;15.00;;;6.75;;
31210;SDS011;17836;50.948;3.946;2024-03-22T12:04:50;8.63;;;5.75;;
31210;SDS011;17836;50.948;3.946;2024-03-22T12:07:16;8.17;;;5.13;;
31210;SDS011;17836;50.948;3.946;2024-03-22T12:09:42;10.65;;;5.93;;
31210;SDS011;17836;50.948;3.946;2024-03-22T12:12:08;16.25;;;7.03;;
31210;SDS011;17836;50.948;3.946;2024-03-22T12:14:36;9.65;;;6.15;;
31210;SDS011;17836;50.948;3.946;2024-03-22T12:17:01;10.75;;;5.68;;
31210;SDS011;17836;50.948;3.946;2024-03-22T12:19:27;12.88;;;6.15;;
31210;SDS011;17836;50.948;3.946;2024-03-22T12:21:52;8.57;;;5.93;;
31210;SDS011;17836;50.948;3.946;2024-03-22T12:24:17;13.50;;;6.82;;
31210;SDS011;17836;50.948;3.946;2024-03-22T12:26:45;17.03;;;6.23;;
31210;SDS011;17836;50.948;3.946;2024-03-22T12:29:12;18.02;;;6.43;;
31210;SDS011;17836;50.948;3.946;2024-03-22T12:31:37;10.68;;;6.18;;
31210;SDS011;17836;50.948;3.946;2024-03-22T12:34:03;12.50;;;5.88;;
31210;SDS011;17836;50.948;3.946;2024-03-22T12:36:30;9.80;;;6.57;;
31210;SDS011;17836;50.948;3.946;2024-03-22T12:38:56;12.68;;;6.60;;
31210;SDS011;17836;50.948;3.946;2024-03-22T12:41:24;11.52;;;7.03;;
31210;SDS011;17836;50.948;3.946;2024-03-22T12:43:49;12.48;;;7.57;;
31210;SDS011;17836;50.948;3.946;2024-03-22T12:46:14;16.93;;;6.87;;
31210;SDS011;17836;50.948;3.946;2024-03-22T12:48:40;11.57;;;6.80;;
31210;SDS011;17836;50.948;3.946;2024-03-22T12:51:06;12.03;;;8.40;;
31210;SDS011;17836;50.948;3.946;2024-03-22T12:53:31;11.20;;;8.55;;
31210;SDS011;17836;50.948;3.946;2024-03-22T12:55:57;10.88;;;8.25;;
31210;SDS011;17836;50.948;3.946;2024-03-22T12:58:22;13.07;;;8.87;;
31210;SDS011;17836;50.948;3.946;2024-03-22T13:00:49;13.20;;;9.48;;
31210;SDS011;17836;50.948;3.946;2024-03-22T13:03:15;11.67;;;9.00;;
31210;SDS011;17836;50.948;3.946;2024-03-22T13:05:41;19.63;;;9.55;;
31210;SDS011;17836;50.948;3.946;2024-03-22T13:08:06;17.52;;;10.43;;
31210;SDS011;17836;50.948;3.946;2024-03-22T13:10:32;18.30;;;10.02;;
31210;SDS011;17836;50.948;3.946;2024-03-22T13:12:57;15.32;;;10.60;;
31210;SDS011;17836;50.948;3.946;2024-03-22T13:15:22;17.58;;;10.75;;
31210;SDS011;17836;50.948;3.946;2024-03-22T13:17:48;16.35;;;10.73;;
31210;SDS011;17836;50.948;3.946;2024-03-22T13:20:13;12.67;;;10.47;;
31210;SDS011;17836;50.948;3.946;2024-03-22T13:22:40;14.77;;;10.82;;
31210;SDS011;17836;50.948;3.946;2024-03-22T13:25:06;15.90;;;12.05;;
31210;SDS011;17836;50.948;3.946;2024-03-22T13:27:33;14.68;;;10.95;;
31210;SDS011;17836;50.948;3.946;2024-03-22T13:29:59;16.02;;;12.55;;
31210;SDS011;17836;50.948;3.946;2024-03-22T13:32:24;16.80;;;12.20;;
31210;SDS011;17836;50.948;3.946;2024-03-22T13:34:49;17.27;;;13.23;;
31210;SDS011;17836;50.948;3.946;2024-03-22T13:37:15;19.77;;;12.35;;
31210;SDS011;17836;50.948;3.946;2024-03-22T13:39:40;20.40;;;12.93;;
31210;SDS011;17836;50.948;3.946;2024-03-22T13:42:06;15.07;;;11.90;;
31210;SDS011;17836;50.948;3.946;2024-03-22T13:44:34;17.88;;;11.65;;
31210;SDS011;17836;50.948;3.946;2024-03-22T13:47:00;18.83;;;12.80;;
31210;SDS011;17836;50.948;3.946;2024-03-22T13:49:25;16.55;;;12.32;;
31210;SDS011;17836;50.948;3.946;2024-03-22T13:51:50;14.80;;;10.97;;
31210;SDS011;17836;50.948;3.946;2024-03-22T13:54:16;15.38;;;11.05;;
31210;SDS011;17836;50.948;3.946;2024-03-22T13:56:41;15.00;;;11.60;;
31210;SDS011;17836;50.948;3.946;2024-03-22T13:59:07;21.75;;;12.65;;
31210;SDS011;17836;50.948;3.946;2024-03-22T14:01:35;24.23;;;12.07;;
31210;SDS011;17836;50.948;3.946;2024-03-22T14:04:01;16.38;;;11.63;;
31210;SDS011;17836;50.948;3.946;2024-03-22T14:06:27;17.63;;;12.05;;
31210;SDS011;17836;50.948;3.946;2024-03-22T14:08:53;16.70;;;11.95;;
31210;SDS011;17836;50.948;3.946;2024-03-22T14:11:23;13.45;;;10.55;;
31210;SDS011;17836;50.948;3.946;2024-03-22T14:13:48;18.85;;;11.23;;
31210;SDS011;17836;50.948;3.946;2024-03-22T14:16:14;17.80;;;11.23;;
31210;SDS011;17836;50.948;3.946;2024-03-22T14:18:39;14.30;;;10.83;;
31210;SDS011;17836;50.948;3.946;2024-03-22T14:21:04;11.55;;;10.35;;
31210;SDS011;17836;50.948;3.946;2024-03-22T14:23:29;20.37;;;12.50;;
31210;SDS011;17836;50.948;3.946;2024-03-22T14:25:55;12.85;;;10.30;;
31210;SDS011;17836;50.948;3.946;2024-03-22T14:28:20;11.45;;;10.27;;
31210;SDS011;17836;50.948;3.946;2024-03-22T14:30:47;12.40;;;10.63;;
31210;SDS011;17836;50.948;3.946;2024-03-22T14:33:12;12.52;;;10.05;;
31210;SDS011;17836;50.948;3.946;2024-03-22T14:35:37;12.10;;;10.07;;
31210;SDS011;17836;50.948;3.946;2024-03-22T14:38:05;16.52;;;12.00;;
31210;SDS011;17836;50.948;3.946;2024-03-22T14:40:30;12.17;;;10.53;;
31210;SDS011;17836;50.948;3.946;2024-03-22T14:43:03;12.85;;;10.38;;
31210;SDS011;17836;50.948;3.946;2024-03-22T14:45:28;14.43;;;10.43;;
31210;SDS011;17836;50.948;3.946;2024-03-22T14:47:53;12.33;;;10.47;;
31210;SDS011;17836;50.948;3.946;2024-03-22T14:50:19;11.73;;;9.48;;
31210;SDS011;17836;50.948;3.946;2024-03-22T14:52:48;12.70;;;10.13;;
31210;SDS011;17836;50.948;3.946;2024-03-22T14:55:13;13.75;;;10.23;;
31210;SDS011;17836;50.948;3.946;2024-03-22T14:57:39;12.23;;;10.30;;
31210;SDS011;17836;50.948;3.946;2024-03-22T15:00:04;16.75;;;11.30;;
31210;SDS011;17836;50.948;3.946;2024-03-22T15:02:34;18.95;;;10.55;;
31210;SDS011;17836;50.948;3.946;2024-03-22T15:05:00;10.63;;;9.55;;
31210;SDS011;17836;50.948;3.946;2024-03-22T15:07:25;12.30;;;8.85;;
31210;SDS011;17836;50.948;3.946;2024-03-22T15:09:50;10.40;;;8.93;;
31210;SDS011;17836;50.948;3.946;2024-03-22T15:12:18;11.13;;;8.23;;
31210;SDS011;17836;50.948;3.946;2024-03-22T15:14:43;15.82;;;9.55;;
31210;SDS011;17836;50.948;3.946;2024-03-22T15:17:09;10.20;;;8.77;;
31210;SDS011;17836;50.948;3.946;2024-03-22T15:19:36;11.55;;;9.27;;
31210;SDS011;17836;50.948;3.946;2024-03-22T15:22:02;16.02;;;9.73;;
31210;SDS011;17836;50.948;3.946;2024-03-22T15:24:27;12.52;;;9.35;;
31210;SDS011;17836;50.948;3.946;2024-03-22T15:26:52;11.40;;;8.07;;
31210;SDS011;17836;50.948;3.946;2024-03-22T15:29:17;13.60;;;8.70;;
31210;SDS011;17836;50.948;3.946;2024-03-22T15:31:43;11.63;;;8.63;;
31210;SDS011;17836;50.948;3.946;2024-03-22T15:34:08;11.90;;;8.23;;
31210;SDS011;17836;50.948;3.946;2024-03-22T15:36:34;12.43;;;9.30;;
31210;SDS011;17836;50.948;3.946;2024-03-22T15:38:59;9.25;;;8.35;;
31210;SDS011;17836;50.948;3.946;2024-03-22T15:41:27;8.60;;;7.82;;
31210;SDS011;17836;50.948;3.946;2024-03-22T15:43:52;14.63;;;9.60;;
31210;SDS011;17836;50.948;3.946;2024-03-22T15:46:18;9.23;;;8.03;;
31210;SDS011;17836;50.948;3.946;2024-03-22T15:48:43;11.55;;;9.02;;
31210;SDS011;17836;50.948;3.946;2024-03-22T15:51:08;9.87;;;8.70;;
31210;SDS011;17836;50.948;3.946;2024-03-22T15:53:34;10.53;;;8.83;;
31210;SDS011;17836;50.948;3.946;2024-03-22T15:56:01;9.38;;;8.32;;
31210;SDS011;17836;50.948;3.946;2024-03-22T15:58:29;11.23;;;9.55;;